sensor_id;sensor_type;location;lat;lon;timestamp;P1;durP1;ratioP1;P2;durP2;ratioP2
36355;SDS011;22384;54.302;18.596;2023-04-06T00:00:10;13.45;;;5.32;;
36355;SDS011;22384;54.302;18.596;2023-04-06T00:02:36;11.48;;;5.35;;
36355;SDS011;22384;54.302;18.596;2023-04-06T00:05:02;9.23;;;5.53;;
36355;SDS011;22384;54.302;18.596;2023-04-06T00:07:28;14.45;;;5.78;;
36355;SDS011;22384;54.302;18.596;2023-04-06T00:09:55;15.88;;;5.68;;
36355;SDS011;22384;54.302;18.596;2023-04-06T00:12:21;18.15;;;5.88;;
36355;SDS011;22384;54.302;18.596;2023-04-06T00:14:47;16.48;;;6.28;;
36355;SDS011;22384;54.302;18.596;2023-04-06T00:17:13;12.80;;;5.57;;
36355;SDS011;22384;54.302;18.596;2023-04-06T00:19:40;9.20;;;5.15;;
36355;SDS011;22384;54.302;18.596;2023-04-06T00:22:07;11.23;;;5.18;;
36355;SDS011;22384;54.302;18.596;2023-04-06T00:24:34;12.50;;;5.50;;
36355;SDS011;22384;54.302;18.596;2023-04-06T00:27:01;13.85;;;5.93;;
36355;SDS011;22384;54.302;18.596;2023-04-06T00:29:27;15.85;;;5.43;;
36355;SDS011;22384;54.302;18.596;2023-04-06T00:31:53;11.98;;;5.50;;
36355;SDS011;22384;54.302;18.596;2023-04-06T00:34:19;12.27;;;5.63;;
36355;SDS011;22384;54.302;18.596;2023-04-06T00:36:46;13.88;;;5.93;;
36355;SDS011;22384;54.302;18.596;2023-04-06T00:39:12;10.30;;;4.95;;
36355;SDS011;22384;54.302;18.596;2023-04-06T00:41:38;14.63;;;6.38;;
36355;SDS011;22384;54.302;18.596;2023-04-06T00:44:07;14.52;;;6.50;;
36355;SDS011;22384;54.302;18.596;2023-04-06T00:46:33;17.08;;;6.53;;
36355;SDS011;22384;54.302;18.596;2023-04-06T00:49:00;21.88;;;7.00;;
36355;SDS011;22384;54.302;18.596;2023-04-06T00:51:26;14.00;;;5.93;;
36355;SDS011;22384;54.302;18.596;2023-04-06T00:53:52;14.30;;;6.15;;
36355;SDS011;22384;54.302;18.596;2023-04-06T00:56:19;20.40;;;5.95;;
36355;SDS011;22384;54.302;18.596;2023-04-06T00:58:46;15.40;;;6.32;;
36355;SDS011;22384;54.302;18.596;2023-04-06T01:01:12;12.48;;;6.68;;
36355;SDS011;22384;54.302;18.596;2023-04-06T01:03:39;19.75;;;6.57;;
36355;SDS011;22384;54.302;18.596;2023-04-06T01:06:07;13.02;;;6.32;;
36355;SDS011;22384;54.302;18.596;2023-04-06T01:08:33;17.05;;;7.32;;
36355;SDS011;22384;54.302;18.596;2023-04-06T01:11:00;16.50;;;6.82;;
36355;SDS011;22384;54.302;18.596;2023-04-06T01:13:27;13.05;;;5.60;;
36355;SDS011;22384;54.302;18.596;2023-04-06T01:15:54;13.27;;;6.53;;
36355;SDS011;22384;54.302;18.596;2023-04-06T01:18:29;23.25;;;6.82;;
36355;SDS011;22384;54.302;18.596;2023-04-06T01:20:55;21.33;;;6.65;;
36355;SDS011;22384;54.302;18.596;2023-04-06T01:23:22;20.20;;;7.18;;
36355;SDS011;22384;54.302;18.596;2023-04-06T01:25:48;25.45;;;8.32;;
36355;SDS011;22384;54.302;18.596;2023-04-06T01:28:15;13.85;;;6.70;;
36355;SDS011;22384;54.302;18.596;2023-04-06T01:30:41;16.52;;;6.57;;
36355;SDS011;22384;54.302;18.596;2023-04-06T01:33:07;14.05;;;6.60;;
36355;SDS011;22384;54.302;18.596;2023-04-06T01:35:34;16.55;;;6.82;;
36355;SDS011;22384;54.302;18.596;2023-04-06T01:38:03;14.15;;;6.63;;
36355;SDS011;22384;54.302;18.596;2023-04-06T01:40:29;14.98;;;6.25;;
36355;SDS011;22384;54.302;18.596;2023-04-06T01:42:56;15.45;;;6.15;;
36355;SDS011;22384;54.302;18.596;2023-04-06T01:45:22;12.85;;;5.95;;
36355;SDS011;22384;54.302;18.596;2023-04-06T01:47:48;15.98;;;7.07;;
36355;SDS011;22384;54.302;18.596;2023-04-06T01:53:07;13.45;;;6.57;;
36355;SDS011;22384;54.302;18.596;2023-04-06T01:55:33;15.65;;;7.65;;
36355;SDS011;22384;54.302;18.596;2023-04-06T01:58:00;11.90;;;5.78;;
36355;SDS011;22384;54.302;18.596;2023-04-06T02:00:26;17.08;;;6.00;;
36355;SDS011;22384;54.302;18.596;2023-04-06T02:02:53;22.58;;;7.05;;
36355;SDS011;22384;54.302;18.596;2023-04-06T02:05:19;20.17;;;6.22;;
36355;SDS011;22384;54.302;18.596;2023-04-06T02:07:45;25.00;;;6.60;;
36355;SDS011;22384;54.302;18.596;2023-04-06T02:10:12;13.13;;;6.72;;
36355;SDS011;22384;54.302;18.596;2023-04-06T02:12:39;19.55;;;6.32;;
36355;SDS011;22384;54.302;18.596;2023-04-06T02:15:05;12.30;;;6.13;;
36355;SDS011;22384;54.302;18.596;2023-04-06T02:17:31;17.63;;;6.15;;
36355;SDS011;22384;54.302;18.596;2023-04-06T02:19:58;24.33;;;6.18;;
36355;SDS011;22384;54.302;18.596;2023-04-06T02:22:24;21.75;;;7.10;;
36355;SDS011;22384;54.302;18.596;2023-04-06T02:24:51;21.30;;;7.15;;
36355;SDS011;22384;54.302;18.596;2023-04-06T02:27:17;16.77;;;5.97;;
36355;SDS011;22384;54.302;18.596;2023-04-06T02:29:43;15.13;;;6.65;;
36355;SDS011;22384;54.302;18.596;2023-04-06T02:32:10;14.68;;;6.50;;
36355;SDS011;22384;54.302;18.596;2023-04-06T02:34:36;19.88;;;6.10;;
36355;SDS011;22384;54.302;18.596;2023-04-06T02:37:02;19.13;;;7.38;;
36355;SDS011;22384;54.302;18.596;2023-04-06T02:39:28;13.73;;;6.55;;
36355;SDS011;22384;54.302;18.596;2023-04-06T02:41:55;17.10;;;7.15;;
36355;SDS011;22384;54.302;18.596;2023-04-06T02:44:22;16.83;;;7.13;;
36355;SDS011;22384;54.302;18.596;2023-04-06T02:46:48;20.60;;;6.95;;
36355;SDS011;22384;54.302;18.596;2023-04-06T02:49:16;14.90;;;7.45;;
36355;SDS011;22384;54.302;18.596;2023-04-06T02:51:42;20.77;;;7.53;;
36355;SDS011;22384;54.302;18.596;2023-04-06T02:54:08;22.98;;;7.03;;
36355;SDS011;22384;54.302;18.596;2023-04-06T02:56:35;30.25;;;7.70;;
36355;SDS011;22384;54.302;18.596;2023-04-06T02:59:01;23.42;;;7.10;;
36355;SDS011;22384;54.302;18.596;2023-04-06T03:01:27;20.73;;;6.97;;
36355;SDS011;22384;54.302;18.596;2023-04-06T03:03:53;15.68;;;7.00;;
36355;SDS011;22384;54.302;18.596;2023-04-06T03:06:20;18.13;;;7.07;;
36355;SDS011;22384;54.302;18.596;2023-04-06T03:08:46;15.13;;;7.95;;
36355;SDS011;22384;54.302;18.596;2023-04-06T03:11:12;22.73;;;7.18;;
36355;SDS011;22384;54.302;18.596;2023-04-06T03:13:39;14.05;;;7.13;;
36355;SDS011;22384;54.302;18.596;2023-04-06T03:16:06;16.83;;;7.35;;
36355;SDS011;22384;54.302;18.596;2023-04-06T03:18:32;19.42;;;7.35;;
36355;SDS011;22384;54.302;18.596;2023-04-06T03:20:58;16.25;;;7.85;;
36355;SDS011;22384;54.302;18.596;2023-04-06T03:23:26;17.15;;;7.78;;
36355;SDS011;22384;54.302;18.596;2023-04-06T03:25:52;21.23;;;7.38;;
36355;SDS011;22384;54.302;18.596;2023-04-06T03:28:18;21.35;;;7.93;;
36355;SDS011;22384;54.302;18.596;2023-04-06T03:30:45;18.08;;;7.07;;
36355;SDS011;22384;54.302;18.596;2023-04-06T03:33:11;22.60;;;8.55;;
36355;SDS011;22384;54.302;18.596;2023-04-06T03:35:37;17.35;;;7.28;;
36355;SDS011;22384;54.302;18.596;2023-04-06T03:38:04;14.90;;;6.53;;
36355;SDS011;22384;54.302;18.596;2023-04-06T03:40:30;15.90;;;6.93;;
36355;SDS011;22384;54.302;18.596;2023-04-06T03:42:57;15.30;;;7.25;;
36355;SDS011;22384;54.302;18.596;2023-04-06T03:45:23;22.20;;;9.43;;
36355;SDS011;22384;54.302;18.596;2023-04-06T03:47:49;18.23;;;7.25;;
36355;SDS011;22384;54.302;18.596;2023-04-06T03:50:15;25.90;;;8.43;;
36355;SDS011;22384;54.302;18.596;2023-04-06T03:52:42;16.63;;;7.78;;
36355;SDS011;22384;54.302;18.596;2023-04-06T03:55:08;17.50;;;6.78;;
36355;SDS011;22384;54.302;18.596;2023-04-06T03:57:34;18.92;;;7.18;;
36355;SDS011;22384;54.302;18.596;2023-04-06T04:00:01;16.45;;;6.78;;
36355;SDS011;22384;54.302;18.596;2023-04-06T04:02:28;24.55;;;7.30;;
36355;SDS011;22384;54.302;18.596;2023-04-06T04:04:54;24.80;;;7.88;;
36355;SDS011;22384;54.302;18.596;2023-04-06T04:07:20;18.88;;;6.70;;
36355;SDS011;22384;54.302;18.596;2023-04-06T04:09:47;15.00;;;6.63;;
36355;SDS011;22384;54.302;18.596;2023-04-06T04:12:13;22.42;;;7.10;;
36355;SDS011;22384;54.302;18.596;2023-04-06T04:14:40;19.48;;;7.53;;
36355;SDS011;22384;54.302;18.596;2023-04-06T04:17:06;17.25;;;8.15;;
36355;SDS011;22384;54.302;18.596;2023-04-06T04:19:32;12.20;;;7.07;;
36355;SDS011;22384;54.302;18.596;2023-04-06T04:21:59;16.92;;;6.70;;
36355;SDS011;22384;54.302;18.596;2023-04-06T04:24:25;22.15;;;6.45;;
36355;SDS011;22384;54.302;18.596;2023-04-06T04:26:52;20.70;;;7.90;;
36355;SDS011;22384;54.302;18.596;2023-04-06T04:29:18;21.38;;;7.40;;
36355;SDS011;22384;54.302;18.596;2023-04-06T04:31:46;23.40;;;8.45;;
36355;SDS011;22384;54.302;18.596;2023-04-06T04:34:13;32.85;;;10.05;;
36355;SDS011;22384;54.302;18.596;2023-04-06T04:36:40;25.75;;;9.57;;
36355;SDS011;22384;54.302;18.596;2023-04-06T04:39:07;28.83;;;9.77;;
36355;SDS011;22384;54.302;18.596;2023-04-06T04:41:33;42.75;;;10.43;;
36355;SDS011;22384;54.302;18.596;2023-04-06T04:44:00;52.58;;;11.75;;
36355;SDS011;22384;54.302;18.596;2023-04-06T04:46:27;32.20;;;11.88;;
36355;SDS011;22384;54.302;18.596;2023-04-06T04:48:53;42.70;;;12.88;;
36355;SDS011;22384;54.302;18.596;2023-04-06T04:51:20;46.08;;;12.30;;
36355;SDS011;22384;54.302;18.596;2023-04-06T04:53:46;40.65;;;11.55;;
36355;SDS011;22384;54.302;18.596;2023-04-06T04:56:12;45.53;;;10.93;;
36355;SDS011;22384;54.302;18.596;2023-04-06T04:58:38;30.63;;;10.10;;
36355;SDS011;22384;54.302;18.596;2023-04-06T05:01:04;28.33;;;9.38;;
36355;SDS011;22384;54.302;18.596;2023-04-06T05:03:32;30.00;;;9.23;;
36355;SDS011;22384;54.302;18.596;2023-04-06T05:05:59;23.92;;;8.95;;
36355;SDS011;22384;54.302;18.596;2023-04-06T05:08:25;29.70;;;8.35;;
36355;SDS011;22384;54.302;18.596;2023-04-06T05:10:51;26.08;;;8.02;;
36355;SDS011;22384;54.302;18.596;2023-04-06T05:13:18;22.90;;;8.38;;
36355;SDS011;22384;54.302;18.596;2023-04-06T05:15:44;20.63;;;8.15;;
36355;SDS011;22384;54.302;18.596;2023-04-06T05:18:10;26.35;;;9.35;;
36355;SDS011;22384;54.302;18.596;2023-04-06T05:20:37;23.92;;;8.77;;
36355;SDS011;22384;54.302;18.596;2023-04-06T05:23:03;19.42;;;7.95;;
36355;SDS011;22384;54.302;18.596;2023-04-06T05:25:31;19.40;;;7.60;;
36355;SDS011;22384;54.302;18.596;2023-04-06T05:27:58;17.83;;;7.18;;
36355;SDS011;22384;54.302;18.596;2023-04-06T05:30:24;23.88;;;8.93;;
36355;SDS011;22384;54.302;18.596;2023-04-06T05:32:50;23.15;;;7.05;;
36355;SDS011;22384;54.302;18.596;2023-04-06T05:35:17;26.95;;;7.97;;
36355;SDS011;22384;54.302;18.596;2023-04-06T05:37:43;25.38;;;7.63;;
36355;SDS011;22384;54.302;18.596;2023-04-06T05:40:11;28.35;;;8.43;;
36355;SDS011;22384;54.302;18.596;2023-04-06T05:42:37;19.88;;;7.95;;
36355;SDS011;22384;54.302;18.596;2023-04-06T05:45:04;21.85;;;7.57;;
36355;SDS011;22384;54.302;18.596;2023-04-06T05:47:30;23.65;;;8.25;;
36355;SDS011;22384;54.302;18.596;2023-04-06T05:49:56;19.98;;;7.80;;
36355;SDS011;22384;54.302;18.596;2023-04-06T05:52:23;29.70;;;9.20;;
36355;SDS011;22384;54.302;18.596;2023-04-06T05:54:49;17.70;;;6.97;;
36355;SDS011;22384;54.302;18.596;2023-04-06T05:57:15;21.83;;;8.70;;
36355;SDS011;22384;54.302;18.596;2023-04-06T05:59:42;25.25;;;8.32;;
36355;SDS011;22384;54.302;18.596;2023-04-06T06:02:11;22.33;;;8.80;;
36355;SDS011;22384;54.302;18.596;2023-04-06T06:04:37;17.08;;;7.60;;
36355;SDS011;22384;54.302;18.596;2023-04-06T06:07:03;14.57;;;5.65;;
36355;SDS011;22384;54.302;18.596;2023-04-06T06:09:32;10.73;;;4.18;;
36355;SDS011;22384;54.302;18.596;2023-04-06T06:11:59;8.13;;;3.65;;
36355;SDS011;22384;54.302;18.596;2023-04-06T06:14:25;9.85;;;2.97;;
36355;SDS011;22384;54.302;18.596;2023-04-06T06:16:53;5.07;;;2.65;;
36355;SDS011;22384;54.302;18.596;2023-04-06T06:19:20;3.85;;;1.98;;
36355;SDS011;22384;54.302;18.596;2023-04-06T06:21:47;7.97;;;2.30;;
36355;SDS011;22384;54.302;18.596;2023-04-06T06:24:13;5.45;;;2.40;;
36355;SDS011;22384;54.302;18.596;2023-04-06T06:26:39;13.85;;;4.30;;
36355;SDS011;22384;54.302;18.596;2023-04-06T06:29:06;6.95;;;2.63;;
36355;SDS011;22384;54.302;18.596;2023-04-06T06:31:35;7.13;;;2.90;;
36355;SDS011;22384;54.302;18.596;2023-04-06T06:34:01;15.05;;;4.13;;
36355;SDS011;22384;54.302;18.596;2023-04-06T06:36:30;14.15;;;4.53;;
36355;SDS011;22384;54.302;18.596;2023-04-06T06:38:57;7.65;;;3.63;;
36355;SDS011;22384;54.302;18.596;2023-04-06T06:41:25;7.38;;;3.35;;
36355;SDS011;22384;54.302;18.596;2023-04-06T06:43:51;9.40;;;4.07;;
36355;SDS011;22384;54.302;18.596;2023-04-06T06:46:17;7.90;;;2.67;;
36355;SDS011;22384;54.302;18.596;2023-04-06T06:48:43;11.23;;;3.72;;
36355;SDS011;22384;54.302;18.596;2023-04-06T06:51:11;6.07;;;2.92;;
36355;SDS011;22384;54.302;18.596;2023-04-06T06:53:38;6.72;;;2.92;;
36355;SDS011;22384;54.302;18.596;2023-04-06T06:56:04;10.25;;;3.42;;
36355;SDS011;22384;54.302;18.596;2023-04-06T06:58:32;6.15;;;2.47;;
36355;SDS011;22384;54.302;18.596;2023-04-06T07:00:59;8.98;;;3.45;;
36355;SDS011;22384;54.302;18.596;2023-04-06T07:03:25;9.57;;;3.08;;
36355;SDS011;22384;54.302;18.596;2023-04-06T07:05:52;10.23;;;3.88;;
36355;SDS011;22384;54.302;18.596;2023-04-06T07:08:19;6.65;;;3.22;;
36355;SDS011;22384;54.302;18.596;2023-04-06T07:10:45;6.20;;;2.90;;
36355;SDS011;22384;54.302;18.596;2023-04-06T07:13:11;7.60;;;3.45;;
36355;SDS011;22384;54.302;18.596;2023-04-06T07:15:39;7.38;;;2.75;;
36355;SDS011;22384;54.302;18.596;2023-04-06T07:18:06;8.20;;;4.38;;
36355;SDS011;22384;54.302;18.596;2023-04-06T07:20:37;8.55;;;2.88;;
36355;SDS011;22384;54.302;18.596;2023-04-06T07:23:25;10.50;;;3.08;;
36355;SDS011;22384;54.302;18.596;2023-04-06T07:25:51;9.35;;;3.38;;
36355;SDS011;22384;54.302;18.596;2023-04-06T07:28:19;9.27;;;3.70;;
36355;SDS011;22384;54.302;18.596;2023-04-06T07:30:45;15.13;;;4.55;;
36355;SDS011;22384;54.302;18.596;2023-04-06T07:33:12;7.85;;;3.55;;
36355;SDS011;22384;54.302;18.596;2023-04-06T07:35:38;13.32;;;4.00;;
36355;SDS011;22384;54.302;18.596;2023-04-06T07:38:10;10.82;;;4.63;;
36355;SDS011;22384;54.302;18.596;2023-04-06T07:40:37;9.75;;;3.45;;
36355;SDS011;22384;54.302;18.596;2023-04-06T07:43:04;9.40;;;4.70;;
36355;SDS011;22384;54.302;18.596;2023-04-06T07:45:30;21.27;;;6.85;;
36355;SDS011;22384;54.302;18.596;2023-04-06T07:47:57;20.70;;;6.78;;
36355;SDS011;22384;54.302;18.596;2023-04-06T07:50:23;17.42;;;6.38;;
36355;SDS011;22384;54.302;18.596;2023-04-06T07:52:50;18.38;;;6.07;;
36355;SDS011;22384;54.302;18.596;2023-04-06T07:55:18;20.17;;;7.22;;
36355;SDS011;22384;54.302;18.596;2023-04-06T07:57:44;13.77;;;5.88;;
36355;SDS011;22384;54.302;18.596;2023-04-06T08:00:10;16.17;;;6.85;;
36355;SDS011;22384;54.302;18.596;2023-04-06T08:02:37;16.45;;;5.90;;
36355;SDS011;22384;54.302;18.596;2023-04-06T08:05:03;25.60;;;6.47;;
36355;SDS011;22384;54.302;18.596;2023-04-06T08:07:29;10.43;;;5.45;;
36355;SDS011;22384;54.302;18.596;2023-04-06T08:09:55;17.80;;;6.22;;
36355;SDS011;22384;54.302;18.596;2023-04-06T08:12:21;20.65;;;6.80;;
36355;SDS011;22384;54.302;18.596;2023-04-06T08:14:48;12.27;;;5.47;;
36355;SDS011;22384;54.302;18.596;2023-04-06T08:17:20;17.52;;;6.22;;
36355;SDS011;22384;54.302;18.596;2023-04-06T08:19:46;22.33;;;7.93;;
36355;SDS011;22384;54.302;18.596;2023-04-06T08:22:12;25.27;;;10.18;;
36355;SDS011;22384;54.302;18.596;2023-04-06T08:24:39;18.63;;;6.78;;
36355;SDS011;22384;54.302;18.596;2023-04-06T08:27:10;14.57;;;6.43;;
36355;SDS011;22384;54.302;18.596;2023-04-06T08:29:37;15.48;;;6.32;;
36355;SDS011;22384;54.302;18.596;2023-04-06T08:32:05;12.45;;;5.35;;
36355;SDS011;22384;54.302;18.596;2023-04-06T08:34:34;12.40;;;6.18;;
36355;SDS011;22384;54.302;18.596;2023-04-06T08:37:00;15.85;;;6.68;;
36355;SDS011;22384;54.302;18.596;2023-04-06T08:39:27;13.82;;;5.45;;
36355;SDS011;22384;54.302;18.596;2023-04-06T08:41:55;24.65;;;8.82;;
36355;SDS011;22384;54.302;18.596;2023-04-06T08:44:23;13.70;;;5.70;;
36355;SDS011;22384;54.302;18.596;2023-04-06T08:46:50;20.75;;;6.45;;
36355;SDS011;22384;54.302;18.596;2023-04-06T08:49:20;9.30;;;4.32;;
36355;SDS011;22384;54.302;18.596;2023-04-06T08:51:46;10.75;;;3.95;;
36355;SDS011;22384;54.302;18.596;2023-04-06T08:54:13;14.50;;;4.13;;
36355;SDS011;22384;54.302;18.596;2023-04-06T08:56:40;12.27;;;3.67;;
36355;SDS011;22384;54.302;18.596;2023-04-06T08:59:06;5.97;;;3.72;;
36355;SDS011;22384;54.302;18.596;2023-04-06T09:01:33;12.10;;;4.07;;
36355;SDS011;22384;54.302;18.596;2023-04-06T09:04:00;11.38;;;3.60;;
36355;SDS011;22384;54.302;18.596;2023-04-06T09:06:26;7.95;;;3.30;;
36355;SDS011;22384;54.302;18.596;2023-04-06T09:08:54;10.20;;;3.28;;
36355;SDS011;22384;54.302;18.596;2023-04-06T09:11:20;18.88;;;6.40;;
36355;SDS011;22384;54.302;18.596;2023-04-06T09:13:47;6.63;;;3.60;;
36355;SDS011;22384;54.302;18.596;2023-04-06T09:16:17;14.32;;;4.30;;
36355;SDS011;22384;54.302;18.596;2023-04-06T09:18:47;9.77;;;3.75;;
36355;SDS011;22384;54.302;18.596;2023-04-06T09:21:16;10.65;;;3.72;;
36355;SDS011;22384;54.302;18.596;2023-04-06T09:23:43;13.93;;;3.77;;
36355;SDS011;22384;54.302;18.596;2023-04-06T09:26:16;18.58;;;4.65;;
36355;SDS011;22384;54.302;18.596;2023-04-06T09:28:46;10.38;;;3.08;;
36355;SDS011;22384;54.302;18.596;2023-04-06T09:31:13;17.23;;;3.83;;
36355;SDS011;22384;54.302;18.596;2023-04-06T09:33:44;16.48;;;5.50;;
36355;SDS011;22384;54.302;18.596;2023-04-06T09:38:37;9.40;;;3.08;;
36355;SDS011;22384;54.302;18.596;2023-04-06T09:41:04;8.48;;;3.38;;
36355;SDS011;22384;54.302;18.596;2023-04-06T09:43:30;13.50;;;3.67;;
36355;SDS011;22384;54.302;18.596;2023-04-06T09:45:56;6.78;;;2.72;;
36355;SDS011;22384;54.302;18.596;2023-04-06T09:48:24;10.25;;;4.32;;
36355;SDS011;22384;54.302;18.596;2023-04-06T09:50:52;14.45;;;5.05;;
36355;SDS011;22384;54.302;18.596;2023-04-06T09:53:23;7.72;;;3.03;;
36355;SDS011;22384;54.302;18.596;2023-04-06T09:55:52;7.65;;;3.28;;
36355;SDS011;22384;54.302;18.596;2023-04-06T09:58:22;5.80;;;3.47;;
36355;SDS011;22384;54.302;18.596;2023-04-06T10:06:18;21.55;;;7.80;;
36355;SDS011;22384;54.302;18.596;2023-04-06T10:08:46;12.63;;;4.68;;
36355;SDS011;22384;54.302;18.596;2023-04-06T10:11:13;12.27;;;4.85;;
36355;SDS011;22384;54.302;18.596;2023-04-06T10:13:39;13.93;;;3.95;;
36355;SDS011;22384;54.302;18.596;2023-04-06T10:16:08;12.02;;;3.33;;
36355;SDS011;22384;54.302;18.596;2023-04-06T10:18:35;15.05;;;4.93;;
36355;SDS011;22384;54.302;18.596;2023-04-06T10:23:40;8.07;;;3.15;;
36355;SDS011;22384;54.302;18.596;2023-04-06T10:26:12;16.98;;;4.88;;
36355;SDS011;22384;54.302;18.596;2023-04-06T10:28:40;13.27;;;3.95;;
36355;SDS011;22384;54.302;18.596;2023-04-06T10:31:07;23.13;;;8.02;;
36355;SDS011;22384;54.302;18.596;2023-04-06T10:33:34;11.07;;;4.03;;
36355;SDS011;22384;54.302;18.596;2023-04-06T10:36:21;8.43;;;3.90;;
36355;SDS011;22384;54.302;18.596;2023-04-06T10:38:53;14.68;;;6.22;;
36355;SDS011;22384;54.302;18.596;2023-04-06T10:41:19;12.80;;;4.63;;
36355;SDS011;22384;54.302;18.596;2023-04-06T10:43:45;15.90;;;6.30;;
36355;SDS011;22384;54.302;18.596;2023-04-06T10:46:24;8.88;;;3.10;;
36355;SDS011;22384;54.302;18.596;2023-04-06T10:48:50;7.63;;;3.10;;
36355;SDS011;22384;54.302;18.596;2023-04-06T10:51:17;9.30;;;3.67;;
36355;SDS011;22384;54.302;18.596;2023-04-06T10:53:47;5.72;;;2.45;;
36355;SDS011;22384;54.302;18.596;2023-04-06T10:56:14;9.77;;;2.10;;
36355;SDS011;22384;54.302;18.596;2023-04-06T10:58:45;6.85;;;2.20;;
36355;SDS011;22384;54.302;18.596;2023-04-06T11:01:17;6.53;;;2.80;;
36355;SDS011;22384;54.302;18.596;2023-04-06T11:03:44;8.93;;;2.63;;
36355;SDS011;22384;54.302;18.596;2023-04-06T11:06:10;10.18;;;4.10;;
36355;SDS011;22384;54.302;18.596;2023-04-06T11:08:37;3.35;;;1.92;;
36355;SDS011;22384;54.302;18.596;2023-04-06T11:13:44;7.55;;;2.25;;
36355;SDS011;22384;54.302;18.596;2023-04-06T11:19:07;8.00;;;2.58;;
36355;SDS011;22384;54.302;18.596;2023-04-06T11:21:37;4.18;;;2.00;;
36355;SDS011;22384;54.302;18.596;2023-04-06T11:24:19;5.95;;;2.08;;
36355;SDS011;22384;54.302;18.596;2023-04-06T11:26:47;9.32;;;1.90;;
36355;SDS011;22384;54.302;18.596;2023-04-06T11:29:16;4.13;;;1.90;;
36355;SDS011;22384;54.302;18.596;2023-04-06T11:31:53;5.72;;;1.90;;
36355;SDS011;22384;54.302;18.596;2023-04-06T11:34:20;3.83;;;1.63;;
36355;SDS011;22384;54.302;18.596;2023-04-06T11:36:49;5.00;;;2.13;;
36355;SDS011;22384;54.302;18.596;2023-04-06T11:39:20;4.88;;;1.92;;
36355;SDS011;22384;54.302;18.596;2023-04-06T11:41:48;4.35;;;1.92;;
36355;SDS011;22384;54.302;18.596;2023-04-06T11:44:14;6.38;;;1.80;;
36355;SDS011;22384;54.302;18.596;2023-04-06T11:46:50;6.20;;;2.50;;
36355;SDS011;22384;54.302;18.596;2023-04-06T11:49:18;4.32;;;2.10;;
36355;SDS011;22384;54.302;18.596;2023-04-06T11:51:46;4.40;;;1.90;;
36355;SDS011;22384;54.302;18.596;2023-04-06T11:54:12;4.32;;;1.80;;
36355;SDS011;22384;54.302;18.596;2023-04-06T11:56:39;3.67;;;1.92;;
36355;SDS011;22384;54.302;18.596;2023-04-06T11:59:06;4.07;;;2.00;;
36355;SDS011;22384;54.302;18.596;2023-04-06T12:01:32;5.60;;;1.88;;
36355;SDS011;22384;54.302;18.596;2023-04-06T12:04:01;6.93;;;1.77;;
36355;SDS011;22384;54.302;18.596;2023-04-06T12:06:28;7.20;;;2.58;;
36355;SDS011;22384;54.302;18.596;2023-04-06T12:08:55;9.30;;;3.17;;
36355;SDS011;22384;54.302;18.596;2023-04-06T12:11:21;4.88;;;1.92;;
36355;SDS011;22384;54.302;18.596;2023-04-06T12:13:47;9.80;;;2.72;;
36355;SDS011;22384;54.302;18.596;2023-04-06T12:16:14;33.92;;;9.02;;
36355;SDS011;22384;54.302;18.596;2023-04-06T12:18:40;15.82;;;5.97;;
36355;SDS011;22384;54.302;18.596;2023-04-06T12:21:06;28.23;;;8.95;;
36355;SDS011;22384;54.302;18.596;2023-04-06T12:23:32;7.53;;;3.17;;
36355;SDS011;22384;54.302;18.596;2023-04-06T12:25:59;5.95;;;2.45;;
36355;SDS011;22384;54.302;18.596;2023-04-06T12:28:26;16.52;;;3.97;;
36355;SDS011;22384;54.302;18.596;2023-04-06T12:30:52;15.07;;;6.15;;
36355;SDS011;22384;54.302;18.596;2023-04-06T12:33:19;30.73;;;9.45;;
36355;SDS011;22384;54.302;18.596;2023-04-06T12:35:46;11.68;;;4.35;;
36355;SDS011;22384;54.302;18.596;2023-04-06T12:38:13;19.50;;;6.85;;
36355;SDS011;22384;54.302;18.596;2023-04-06T12:40:40;8.95;;;2.00;;
36355;SDS011;22384;54.302;18.596;2023-04-06T12:43:06;4.15;;;1.52;;
36355;SDS011;22384;54.302;18.596;2023-04-06T12:45:32;2.78;;;1.33;;
36355;SDS011;22384;54.302;18.596;2023-04-06T12:47:58;4.53;;;1.67;;
36355;SDS011;22384;54.302;18.596;2023-04-06T12:50:25;14.38;;;5.25;;
36355;SDS011;22384;54.302;18.596;2023-04-06T12:52:51;4.53;;;1.75;;
36355;SDS011;22384;54.302;18.596;2023-04-06T12:55:18;22.25;;;8.63;;
36355;SDS011;22384;54.302;18.596;2023-04-06T12:57:47;5.88;;;2.65;;
36355;SDS011;22384;54.302;18.596;2023-04-06T13:00:14;6.65;;;2.50;;
36355;SDS011;22384;54.302;18.596;2023-04-06T13:02:40;7.50;;;2.63;;
36355;SDS011;22384;54.302;18.596;2023-04-06T13:05:11;1.48;;;1.08;;
36355;SDS011;22384;54.302;18.596;2023-04-06T13:07:37;2.75;;;1.40;;
36355;SDS011;22384;54.302;18.596;2023-04-06T13:10:04;27.13;;;8.60;;
36355;SDS011;22384;54.302;18.596;2023-04-06T13:12:30;9.50;;;3.03;;
36355;SDS011;22384;54.302;18.596;2023-04-06T13:14:57;3.75;;;1.58;;
36355;SDS011;22384;54.302;18.596;2023-04-06T13:17:26;7.32;;;1.20;;
36355;SDS011;22384;54.302;18.596;2023-04-06T13:19:53;2.45;;;0.98;;
36355;SDS011;22384;54.302;18.596;2023-04-06T13:22:20;4.55;;;2.03;;
36355;SDS011;22384;54.302;18.596;2023-04-06T13:24:46;24.10;;;7.82;;
36355;SDS011;22384;54.302;18.596;2023-04-06T13:27:12;23.27;;;5.82;;
36355;SDS011;22384;54.302;18.596;2023-04-06T13:29:40;10.02;;;2.50;;
36355;SDS011;22384;54.302;18.596;2023-04-06T13:32:06;12.15;;;2.50;;
36355;SDS011;22384;54.302;18.596;2023-04-06T13:34:34;27.92;;;9.13;;
36355;SDS011;22384;54.302;18.596;2023-04-06T13:37:01;43.50;;;13.27;;
36355;SDS011;22384;54.302;18.596;2023-04-06T13:39:27;9.15;;;4.43;;
36355;SDS011;22384;54.302;18.596;2023-04-06T13:41:53;13.95;;;4.47;;
36355;SDS011;22384;54.302;18.596;2023-04-06T13:44:21;2.50;;;1.63;;
36355;SDS011;22384;54.302;18.596;2023-04-06T13:46:47;7.70;;;1.27;;
36355;SDS011;22384;54.302;18.596;2023-04-06T13:49:13;9.18;;;1.73;;
36355;SDS011;22384;54.302;18.596;2023-04-06T13:51:40;7.68;;;4.68;;
36355;SDS011;22384;54.302;18.596;2023-04-06T13:54:07;14.30;;;5.90;;
36355;SDS011;22384;54.302;18.596;2023-04-06T13:56:33;29.50;;;12.25;;
36355;SDS011;22384;54.302;18.596;2023-04-06T13:58:59;9.23;;;2.67;;
36355;SDS011;22384;54.302;18.596;2023-04-06T14:01:25;4.95;;;2.15;;
36355;SDS011;22384;54.302;18.596;2023-04-06T14:03:52;1.83;;;1.00;;
36355;SDS011;22384;54.302;18.596;2023-04-06T14:06:19;2.55;;;1.27;;
36355;SDS011;22384;54.302;18.596;2023-04-06T14:08:45;3.45;;;1.33;;
36355;SDS011;22384;54.302;18.596;2023-04-06T14:11:12;4.38;;;1.35;;
36355;SDS011;22384;54.302;18.596;2023-04-06T14:13:39;1.65;;;0.90;;
36355;SDS011;22384;54.302;18.596;2023-04-06T14:16:06;7.80;;;3.45;;
36355;SDS011;22384;54.302;18.596;2023-04-06T14:18:33;2.60;;;1.17;;
36355;SDS011;22384;54.302;18.596;2023-04-06T14:20:59;3.75;;;1.10;;
36355;SDS011;22384;54.302;18.596;2023-04-06T14:23:28;6.75;;;3.13;;
36355;SDS011;22384;54.302;18.596;2023-04-06T14:26:04;4.40;;;1.40;;
36355;SDS011;22384;54.302;18.596;2023-04-06T14:28:32;18.50;;;6.30;;
36355;SDS011;22384;54.302;18.596;2023-04-06T14:31:00;7.57;;;2.90;;
36355;SDS011;22384;54.302;18.596;2023-04-06T14:33:28;9.60;;;3.88;;
36355;SDS011;22384;54.302;18.596;2023-04-06T14:35:55;2.50;;;1.20;;
36355;SDS011;22384;54.302;18.596;2023-04-06T14:38:22;3.72;;;2.22;;
36355;SDS011;22384;54.302;18.596;2023-04-06T14:40:48;6.75;;;1.65;;
36355;SDS011;22384;54.302;18.596;2023-04-06T14:43:15;2.80;;;1.13;;